createdAt,value
2023-03-05T00:01:52.080Z,244.90
2023-03-05T00:06:52.409Z,208.40
2023-03-05T00:11:49.727Z,323.00
2023-03-05T00:16:51.103Z,311.50
2023-03-05T00:21:51.219Z,200.60
2023-03-05T00:26:48.562Z,185.00
2023-03-05T00:31:48.707Z,156.90
2023-03-05T00:36:46.843Z,207.10
2023-03-05T00:41:46.179Z,233.00
2023-03-05T00:46:45.542Z,212.70
2023-03-05T00:51:44.675Z,198.00
2023-03-05T00:56:43.961Z,187.80
2023-03-05T01:01:43.370Z,176.90
2023-03-05T01:06:42.483Z,162.60
2023-03-05T01:11:42.769Z,160.40
2023-03-05T01:16:41.039Z,136.90
2023-03-05T01:21:40.341Z,130.80
2023-03-05T01:26:38.658Z,120.20
2023-03-05T01:31:39.082Z,121.50
2023-03-05T01:36:38.295Z,114.30
2023-03-05T01:41:37.446Z,99.30
2023-03-05T01:46:36.598Z,98.80
2023-03-05T01:51:35.733Z,99.10
2023-03-05T01:56:36.048Z,92.00
2023-03-05T02:01:35.362Z,86.70
2023-03-05T02:06:33.658Z,80.80
2023-03-05T02:11:33.956Z,75.10
2023-03-05T02:16:32.278Z,71.30
2023-03-05T02:21:31.373Z,70.40
2023-03-05T02:26:30.690Z,63.60
2023-03-05T02:31:30.060Z,62.60
2023-03-05T02:36:30.180Z,60.20
2023-03-05T02:41:28.299Z,60.50
2023-03-05T02:46:26.588Z,57.80
2023-03-05T02:51:27.772Z,55.10
2023-03-05T02:56:27.939Z,51.60
2023-03-05T03:01:26.138Z,50.70
2023-03-05T03:06:24.348Z,50.70
2023-03-05T03:11:23.528Z,45.60
2023-03-05T03:16:22.738Z,44.40
2023-03-05T03:21:21.971Z,43.20
2023-03-05T03:26:24.205Z,43.10
2023-03-05T03:31:20.510Z,41.90
2023-03-05T03:36:19.535Z,37.80
2023-03-05T03:41:19.839Z,37.90
2023-03-05T03:46:19.182Z,35.60
2023-03-05T03:51:17.478Z,36.40
2023-03-05T03:56:16.797Z,34.70
2023-03-05T04:01:16.121Z,33.70
2023-03-05T04:06:16.490Z,32.40
2023-03-05T04:11:16.582Z,32.10
2023-03-05T04:16:14.916Z,29.40
2023-03-05T04:21:13.063Z,29.50
2023-03-05T04:26:12.368Z,26.90
2023-03-05T04:31:11.959Z,27.10
2023-03-05T04:36:10.901Z,28.50
2023-03-05T04:41:12.045Z,29.70
2023-03-05T04:46:09.191Z,27.10
2023-03-05T04:51:09.318Z,25.80
2023-03-05T04:56:08.806Z,26.20
2023-03-05T05:01:06.928Z,25.70
2023-03-05T05:06:06.256Z,24.70
2023-03-05T05:11:06.426Z,23.20
2023-03-05T05:16:05.818Z,24.00
2023-03-05T05:21:04.956Z,23.10
2023-03-05T05:26:03.091Z,23.50
2023-03-05T05:31:02.402Z,23.70
2023-03-05T05:36:05.819Z,24.10
2023-03-05T05:41:00.903Z,20.90
2023-03-05T05:46:01.319Z,21.80
2023-03-05T05:50:59.472Z,22.80
2023-03-05T05:55:59.800Z,23.60
2023-03-05T06:00:57.921Z,23.00
2023-03-05T06:05:57.131Z,23.30
2023-03-05T06:10:58.288Z,20.90
2023-03-05T06:15:55.557Z,20.50
2023-03-05T06:20:55.842Z,25.20
2023-03-05T06:25:56.146Z,22.90
2023-03-05T06:30:54.546Z,23.70
2023-03-05T06:35:52.709Z,22.00
2023-03-05T06:40:52.860Z,20.00
2023-03-05T06:45:53.250Z,19.50
2023-03-05T06:50:50.402Z,20.30
2023-03-05T06:56:31.590Z,19.10
2023-03-05T07:00:48.817Z,18.70
2023-03-05T07:05:49.176Z,19.40
2023-03-05T07:10:47.481Z,19.70
2023-03-05T07:15:48.834Z,21.10
2023-03-05T07:20:46.933Z,20.30
2023-03-05T07:25:47.246Z,20.60
2023-03-05T07:30:45.660Z,19.90
2023-03-05T07:35:43.794Z,21.00
2023-03-05T07:40:45.137Z,21.70
2023-03-05T07:45:44.507Z,20.00
2023-03-05T07:50:41.730Z,21.10
2023-03-05T07:55:41.855Z,20.10
2023-03-05T08:00:40.149Z,21.80
2023-03-05T08:05:39.473Z,18.20
2023-03-05T08:10:39.788Z,20.30
2023-03-05T08:15:39.127Z,21.20
2023-03-05T08:20:37.426Z,17.80
2023-03-05T08:25:36.734Z,18.80
2023-03-05T08:30:37.041Z,19.60
2023-03-05T08:35:35.356Z,19.30
2023-03-05T08:40:34.506Z,20.00
2023-03-05T08:45:33.837Z,18.10
2023-03-05T08:50:33.173Z,21.90
2023-03-05T08:55:34.482Z,21.40
2023-03-05T09:00:31.803Z,22.30
2023-03-05T09:05:31.934Z,15.30
2023-03-05T09:10:31.215Z,36.50
2023-03-05T09:15:29.519Z,37.90
2023-03-05T09:20:28.841Z,39.40
2023-03-05T09:25:28.136Z,40.20
2023-03-05T09:30:27.449Z,40.20
2023-03-05T09:35:26.773Z,42.70
2023-03-05T09:40:27.116Z,40.20
2023-03-05T09:45:26.300Z,41.40
2023-03-05T09:50:25.463Z,41.30
2023-03-05T09:55:23.689Z,44.50
2023-03-05T10:00:22.870Z,79.00
2023-03-05T10:05:21.984Z,182.70
2023-03-05T10:10:22.284Z,150.20
2023-03-05T10:15:21.585Z,187.70
2023-03-05T10:20:20.906Z,122.30
2023-03-05T10:25:19.042Z,161.50
2023-03-05T10:30:19.404Z,251.40
2023-03-05T10:35:17.425Z,140.20
2023-03-05T10:40:18.707Z,110.30
2023-03-05T10:45:17.874Z,85.30
2023-03-05T10:50:16.135Z,67.20
2023-03-05T10:55:15.442Z,58.30
2023-03-05T11:00:13.819Z,71.30
2023-03-05T11:05:15.196Z,55.10
2023-03-05T11:10:12.098Z,50.80
2023-03-05T11:15:12.541Z,43.50
2023-03-05T11:20:11.474Z,43.00
2023-03-05T11:25:10.083Z,41.60
2023-03-05T11:30:09.066Z,39.60
2023-03-05T11:35:09.383Z,40.40
2023-03-05T11:40:07.827Z,39.70
2023-03-05T11:45:08.236Z,31.90
2023-03-05T11:50:05.220Z,32.90
2023-03-05T11:55:05.369Z,29.30
2023-03-05T12:00:04.539Z,31.10
2023-03-05T12:05:03.665Z,31.50
2023-03-05T12:10:04.329Z,32.20
2023-03-05T12:15:04.344Z,31.40
2023-03-05T12:20:01.788Z,30.00
2023-03-05T12:25:01.658Z,31.10
2023-03-05T12:30:00.383Z,32.40
2023-03-05T12:35:00.713Z,32.70
2023-03-05T12:39:58.707Z,33.60
2023-03-05T12:45:00.882Z,31.30
2023-03-05T12:49:57.402Z,31.50
2023-03-05T12:54:57.482Z,30.70
2023-03-05T12:59:55.627Z,29.90
2023-03-05T13:04:54.781Z,28.70
2023-03-05T13:09:53.916Z,28.80
2023-03-05T13:14:55.131Z,29.70
2023-03-05T13:19:52.477Z,27.90
2023-03-05T13:24:52.144Z,29.70
2023-03-05T13:29:51.310Z,28.00
2023-03-05T13:34:51.107Z,28.30
2023-03-05T13:39:50.815Z,29.20
2023-03-05T13:44:50.612Z,27.60
2023-03-05T13:49:47.917Z,28.30
2023-03-05T13:54:47.564Z,28.90
2023-03-05T13:59:46.543Z,29.40
2023-03-05T14:04:47.034Z,28.40
2023-03-05T14:09:45.383Z,29.20
2023-03-05T14:14:44.559Z,27.20
2023-03-05T14:19:45.595Z,27.10
2023-03-05T14:24:46.740Z,42.00
2023-03-05T14:29:43.210Z,180.10
2023-03-05T14:34:41.402Z,72.70
2023-03-05T14:39:40.729Z,86.00
2023-03-05T14:44:40.848Z,50.30
2023-03-05T14:49:40.987Z,54.20
2023-03-05T14:54:38.343Z,47.10
2023-03-05T14:59:37.533Z,52.70
2023-03-05T15:04:37.337Z,43.20
2023-03-05T15:09:37.782Z,40.10
2023-03-05T15:14:35.386Z,37.20
2023-03-05T15:19:35.589Z,34.00
2023-03-05T15:24:35.381Z,32.70
2023-03-05T15:29:33.733Z,33.00
2023-03-05T15:34:33.308Z,28.80
2023-03-05T15:39:34.416Z,31.30
2023-03-05T15:44:31.616Z,28.80
2023-03-05T15:49:30.126Z,26.60
2023-03-05T15:54:29.354Z,29.10
2023-03-05T15:59:29.252Z,28.30
2023-03-05T16:04:26.825Z,27.80
2023-03-05T16:09:27.061Z,26.70
2023-03-05T16:14:27.302Z,24.70
2023-03-05T16:19:25.472Z,228.20
2023-03-05T16:24:28.915Z,108.10
2023-03-05T16:29:23.939Z,91.00
2023-03-05T16:34:21.923Z,51.40
2023-03-05T16:39:22.344Z,43.00
2023-03-05T16:44:22.967Z,142.10
2023-03-05T16:49:20.753Z,133.20
2023-03-05T16:54:20.093Z,69.90
2023-03-05T16:59:19.865Z,120.40
2023-03-05T17:04:19.111Z,83.80
2023-03-05T17:09:18.185Z,77.30
2023-03-05T17:14:17.404Z,63.80
2023-03-05T17:19:16.796Z,62.60
2023-03-05T17:24:19.641Z,47.60
2023-03-05T17:29:15.978Z,42.80
2023-03-05T17:34:13.261Z,36.30
2023-03-05T17:39:13.497Z,34.50
2023-03-05T17:44:12.851Z,33.40
2023-03-05T17:49:12.052Z,30.80
2023-03-05T17:54:13.340Z,30.30
2023-03-05T17:59:12.588Z,33.50
2023-03-05T18:04:10.907Z,29.30
2023-03-05T18:09:12.004Z,28.00
2023-03-05T18:14:08.282Z,26.20
2023-03-05T18:19:07.236Z,51.50
2023-03-05T18:24:06.876Z,71.80
2023-03-05T18:29:06.174Z,69.40
2023-03-05T18:34:05.124Z,98.80
2023-03-05T18:39:05.581Z,88.70
2023-03-05T18:44:04.902Z,74.80
2023-03-05T18:49:03.976Z,60.30
2023-03-05T18:54:02.987Z,47.10
2023-03-05T18:59:01.493Z,42.10
2023-03-05T19:04:02.858Z,41.80
2023-03-05T19:08:59.995Z,31.90
2023-03-05T19:13:59.293Z,32.20
2023-03-05T19:18:59.552Z,31.30
2023-03-05T19:24:00.196Z,27.60
2023-03-05T19:28:59.042Z,29.20
2023-03-05T19:33:56.325Z,28.50
2023-03-05T19:38:56.663Z,63.60
2023-03-05T19:43:55.580Z,57.50
2023-03-05T19:48:55.065Z,50.70
2023-03-05T19:53:55.078Z,46.40
2023-03-05T19:58:54.551Z,69.40
2023-03-05T20:03:52.653Z,82.70
2023-03-05T20:08:51.295Z,65.90
2023-03-05T20:13:51.098Z,54.20
2023-03-05T20:18:50.286Z,104.70
2023-03-05T20:23:49.602Z,92.20
2023-03-05T20:28:53.038Z,78.90
2023-03-05T20:33:47.497Z,79.10
2023-03-05T20:38:47.806Z,103.00
2023-03-05T20:43:46.114Z,87.90
2023-03-05T20:48:45.477Z,66.60
2023-03-05T20:53:44.580Z,65.40
2023-03-05T20:58:44.653Z,61.00
2023-03-05T21:03:49.458Z,71.40
2023-03-05T21:08:43.260Z,68.40
2023-03-05T21:13:41.496Z,63.50
2023-03-05T21:18:40.495Z,74.70
2023-03-05T21:23:40.895Z,81.80
2023-03-05T21:28:39.066Z,88.50
2023-03-05T21:33:39.399Z,63.40
2023-03-05T21:38:38.373Z,73.10
2023-03-05T21:43:36.880Z,86.40
2023-03-05T21:48:35.875Z,70.40
2023-03-05T21:53:34.927Z,80.60
2023-03-05T21:58:34.135Z,104.80
2023-03-05T22:03:33.370Z,73.30
2023-03-05T22:08:32.663Z,79.10
2023-03-05T22:13:31.842Z,85.80
2023-03-05T22:18:31.038Z,98.00
2023-03-05T22:23:31.226Z,121.90
2023-03-05T22:28:29.445Z,83.30
2023-03-05T22:33:28.646Z,80.50
2023-03-05T22:38:28.838Z,108.90
2023-03-05T22:43:26.991Z,84.90
2023-03-05T22:48:28.549Z,77.60
2023-03-05T22:53:25.289Z,69.50
2023-03-05T22:58:25.464Z,58.30
2023-03-05T23:03:24.705Z,53.00
2023-03-05T23:08:22.881Z,74.40
2023-03-05T23:13:24.102Z,82.00
2023-03-05T23:18:21.284Z,73.80
2023-03-05T23:23:21.458Z,60.90
2023-03-05T23:28:23.751Z,68.30
2023-03-05T23:33:19.900Z,88.00
2023-03-05T23:38:19.062Z,77.00
2023-03-05T23:43:17.242Z,68.60
2023-03-05T23:48:19.093Z,70.40
2023-03-05T23:53:16.680Z,97.00
2023-03-05T23:58:16.862Z,81.30
